createdAt,value
2019-02-17T00:00:54.156Z,15.43
2019-02-17T00:03:22.698Z,15.40
2019-02-17T00:05:51.278Z,15.00
2019-02-17T00:08:19.823Z,16.12
2019-02-17T00:10:48.395Z,15.37
2019-02-17T00:13:16.946Z,15.77
2019-02-17T00:15:45.511Z,15.50
2019-02-17T00:18:14.056Z,16.23
2019-02-17T00:20:42.551Z,16.00
2019-02-17T00:23:12.004Z,15.55
2019-02-17T00:25:40.568Z,17.63
2019-02-17T00:28:09.144Z,17.60
2019-02-17T00:30:37.982Z,18.40
2019-02-17T00:33:06.545Z,17.80
2019-02-17T00:35:35.073Z,18.53
2019-02-17T00:38:03.661Z,16.30
2019-02-17T00:40:32.225Z,18.10
2019-02-17T00:43:00.804Z,16.90
2019-02-17T00:45:29.352Z,17.50
2019-02-17T00:47:57.836Z,18.27
2019-02-17T00:50:26.376Z,18.43
2019-02-17T00:52:55.332Z,17.60
2019-02-17T00:55:23.955Z,18.23
2019-02-17T00:57:52.548Z,17.93
2019-02-17T01:00:21.043Z,17.90
2019-02-17T01:02:49.615Z,18.05
2019-02-17T01:05:18.167Z,17.57
2019-02-17T01:07:46.728Z,17.60
2019-02-17T01:10:15.218Z,17.82
2019-02-17T01:12:43.793Z,18.75
2019-02-17T01:15:12.746Z,17.70
2019-02-17T01:17:41.290Z,16.90
2019-02-17T01:20:10.478Z,17.15
2019-02-17T01:22:39.041Z,17.70
2019-02-17T01:25:11.004Z,17.60
2019-02-17T01:27:39.519Z,18.67
2019-02-17T01:30:13.796Z,18.25
2019-02-17T01:32:42.437Z,18.17
2019-02-17T01:35:10.912Z,17.80
2019-02-17T01:37:39.495Z,17.27
2019-02-17T01:40:09.752Z,18.30
2019-02-17T01:42:39.230Z,19.52
2019-02-17T01:45:09.217Z,18.60
2019-02-17T01:47:37.713Z,18.07
2019-02-17T01:50:08.528Z,19.40
2019-02-17T01:52:37.085Z,18.25
2019-02-17T01:55:08.019Z,18.70
2019-02-17T01:57:36.597Z,18.07
2019-02-17T02:00:08.316Z,18.40
2019-02-17T02:02:36.814Z,18.32
2019-02-17T02:05:06.200Z,18.33
2019-02-17T02:07:34.807Z,18.43
2019-02-17T02:10:04.121Z,19.03
2019-02-17T02:12:32.709Z,17.90
2019-02-17T02:15:01.723Z,18.95
2019-02-17T02:17:30.325Z,17.60
2019-02-17T02:19:58.813Z,17.90
2019-02-17T02:22:27.293Z,18.02
2019-02-17T02:24:55.876Z,18.17
2019-02-17T02:27:24.797Z,18.73
2019-02-17T02:29:53.377Z,17.23
2019-02-17T02:32:21.938Z,18.35
2019-02-17T02:34:50.505Z,17.73
2019-02-17T02:37:18.972Z,16.90
2019-02-17T02:39:47.469Z,17.40
2019-02-17T02:42:15.948Z,16.65
2019-02-17T02:44:44.519Z,16.60
2019-02-17T02:47:13.191Z,17.10
2019-02-17T02:49:42.289Z,16.23
2019-02-17T02:52:10.759Z,17.13
2019-02-17T02:54:39.326Z,17.20
2019-02-17T02:57:07.880Z,17.00
2019-02-17T02:59:36.449Z,17.13
2019-02-17T03:02:05.190Z,17.20
2019-02-17T03:04:33.684Z,16.83
2019-02-17T03:07:02.429Z,16.87
2019-02-17T03:09:31.068Z,16.60
2019-02-17T03:11:59.621Z,16.70
2019-02-17T03:14:28.199Z,18.00
2019-02-17T03:16:56.755Z,18.32
2019-02-17T03:19:25.447Z,18.32
2019-02-17T03:21:54.012Z,18.50
2019-02-17T03:24:22.583Z,18.60
2019-02-17T03:26:51.135Z,18.07
2019-02-17T03:29:19.705Z,18.20
2019-02-17T03:31:48.188Z,18.80
2019-02-17T03:34:16.745Z,18.43
2019-02-17T03:36:45.220Z,17.70
2019-02-17T03:39:13.718Z,19.00
2019-02-17T03:41:42.193Z,18.25
2019-02-17T03:44:10.740Z,19.70
2019-02-17T03:46:39.230Z,19.05
2019-02-17T03:49:07.792Z,19.75
2019-02-17T03:51:36.675Z,19.17
2019-02-17T03:54:05.225Z,19.90
2019-02-17T03:56:33.789Z,20.17
2019-02-17T03:59:02.257Z,20.30
2019-02-17T04:01:30.820Z,19.90
2019-02-17T04:03:59.369Z,20.00
2019-02-17T04:06:27.857Z,19.32
2019-02-17T04:08:56.393Z,20.43
2019-02-17T04:11:24.966Z,19.80
2019-02-17T04:13:54.148Z,20.30
2019-02-17T04:16:22.719Z,19.62
2019-02-17T04:18:51.728Z,19.77
2019-02-17T04:21:20.291Z,19.98
2019-02-17T04:23:48.842Z,20.50
2019-02-17T04:26:17.409Z,19.93
2019-02-17T04:28:45.954Z,20.10
2019-02-17T04:31:14.533Z,20.53
2019-02-17T04:33:43.072Z,21.45
2019-02-17T04:36:11.565Z,20.40
2019-02-17T04:38:40.119Z,21.02
2019-02-17T04:41:08.690Z,20.50
2019-02-17T04:43:37.250Z,20.20
2019-02-17T04:46:06.236Z,20.77
2019-02-17T04:48:37.825Z,19.80
2019-02-17T04:51:06.396Z,21.30
2019-02-17T04:53:34.940Z,20.40
2019-02-17T04:56:03.649Z,20.47
2019-02-17T04:58:32.205Z,19.97
2019-02-17T05:01:00.698Z,20.27
2019-02-17T05:03:29.242Z,20.10
2019-02-17T05:05:57.819Z,20.15
2019-02-17T05:08:26.371Z,20.30
2019-02-17T05:10:54.954Z,21.27
2019-02-17T05:13:23.493Z,20.23
2019-02-17T05:15:51.994Z,21.65
2019-02-17T05:18:20.546Z,21.90
2019-02-17T05:20:50.037Z,21.93
2019-02-17T05:23:18.580Z,22.10
2019-02-17T05:25:47.151Z,20.55
2019-02-17T05:28:15.769Z,21.17
2019-02-17T05:30:52.327Z,22.07
2019-02-17T05:33:14.549Z,22.03
2019-02-17T05:35:43.101Z,21.55
2019-02-17T05:38:11.574Z,20.40
2019-02-17T05:40:59.476Z,20.17
2019-02-17T05:43:27.949Z,21.13
2019-02-17T05:45:56.444Z,22.17
2019-02-17T05:48:24.993Z,22.43
2019-02-17T05:50:53.557Z,22.40
2019-02-17T05:53:22.042Z,21.68
2019-02-17T05:55:50.545Z,23.12
2019-02-17T05:58:19.022Z,23.70
2019-02-17T06:00:47.637Z,22.00
2019-02-17T06:03:16.151Z,21.35
2019-02-17T06:05:44.701Z,22.45
2019-02-17T06:08:13.199Z,22.13
2019-02-17T06:10:41.758Z,22.83
2019-02-17T06:13:10.381Z,23.03
2019-02-17T06:15:38.929Z,23.62
2019-02-17T06:18:07.598Z,21.20
2019-02-17T06:20:36.170Z,22.65
2019-02-17T06:23:04.747Z,23.27
2019-02-17T06:25:33.291Z,22.83
2019-02-17T06:28:02.226Z,22.70
2019-02-17T06:30:30.716Z,23.63
2019-02-17T06:32:59.542Z,22.75
2019-02-17T06:35:28.088Z,24.67
2019-02-17T06:37:57.336Z,25.40
2019-02-17T06:40:25.808Z,25.48
2019-02-17T06:42:54.377Z,25.40
2019-02-17T06:45:22.849Z,24.80
2019-02-17T06:47:51.347Z,23.20
2019-02-17T06:50:20.217Z,22.73
2019-02-17T06:52:48.799Z,21.73
2019-02-17T06:55:21.837Z,21.97
2019-02-17T06:57:50.406Z,22.63
2019-02-17T07:00:20.520Z,23.22
2019-02-17T07:02:49.017Z,21.50
2019-02-17T07:05:35.596Z,21.70
2019-02-17T07:08:04.114Z,20.65
2019-02-17T07:10:32.637Z,20.55
2019-02-17T07:13:01.151Z,22.20
2019-02-17T07:15:30.477Z,21.00
2019-02-17T07:17:59.264Z,20.57
2019-02-17T07:20:27.926Z,18.95
2019-02-17T07:22:56.465Z,18.27
2019-02-17T07:25:30.143Z,17.37
2019-02-17T07:27:55.231Z,18.32
2019-02-17T07:30:24.070Z,17.40
2019-02-17T07:32:52.628Z,18.13
2019-02-17T07:35:21.196Z,17.98
2019-02-17T07:37:49.680Z,18.00
2019-02-17T07:40:18.185Z,16.82
2019-02-17T07:42:46.737Z,16.90
2019-02-17T07:45:15.236Z,16.48
2019-02-17T07:47:43.710Z,18.27
2019-02-17T07:50:12.197Z,16.73
2019-02-17T07:52:40.693Z,15.63
2019-02-17T07:55:10.592Z,16.32
2019-02-17T07:57:39.064Z,16.20
2019-02-17T08:00:12.157Z,15.30
2019-02-17T08:02:40.905Z,15.72
2019-02-17T08:05:09.910Z,16.10
2019-02-17T08:07:49.262Z,16.53
2019-02-17T08:10:17.827Z,16.45
2019-02-17T08:12:46.548Z,16.53
2019-02-17T08:15:15.118Z,16.47
2019-02-17T08:17:43.953Z,17.20
2019-02-17T08:20:12.546Z,17.80
2019-02-17T08:22:41.081Z,17.52
2019-02-17T08:25:19.409Z,16.30
2019-02-17T08:27:41.574Z,15.63
2019-02-17T08:30:12.622Z,15.32
2019-02-17T08:32:41.177Z,16.06
2019-02-17T08:35:10.126Z,15.28
2019-02-17T08:37:38.685Z,15.50
2019-02-17T08:40:09.385Z,16.15
2019-02-17T08:42:37.859Z,15.30
2019-02-17T08:45:08.574Z,15.77
2019-02-17T08:47:37.126Z,15.55
2019-02-17T08:50:11.117Z,15.43
2019-02-17T08:52:39.596Z,15.80
2019-02-17T08:55:09.931Z,16.60
2019-02-17T08:57:38.484Z,15.80
2019-02-17T09:00:12.728Z,17.35
2019-02-17T09:02:41.370Z,17.40
2019-02-17T09:05:10.041Z,15.80
2019-02-17T09:07:38.544Z,16.40
2019-02-17T09:10:10.182Z,16.70
2019-02-17T09:12:38.806Z,16.87
2019-02-17T09:15:12.385Z,16.67
2019-02-17T09:17:41.254Z,15.97
2019-02-17T09:20:11.304Z,16.33
2019-02-17T09:22:39.857Z,16.82
2019-02-17T09:25:10.729Z,16.80
2019-02-17T09:27:39.350Z,16.80
2019-02-17T09:30:11.021Z,16.00
2019-02-17T09:32:39.718Z,16.83
2019-02-17T09:35:08.501Z,16.67
2019-02-17T09:37:37.072Z,16.40
2019-02-17T09:40:08.181Z,16.67
2019-02-17T09:42:36.740Z,16.20
2019-02-17T09:45:08.117Z,15.90
2019-02-17T09:47:36.629Z,16.40
2019-02-17T09:50:08.185Z,17.07
2019-02-17T09:52:36.832Z,16.32
2019-02-17T09:55:06.558Z,16.23
2019-02-17T09:57:35.094Z,16.80
2019-02-17T10:00:05.150Z,17.03
2019-02-17T10:02:33.717Z,16.90
2019-02-17T10:05:02.208Z,16.70
2019-02-17T10:07:30.771Z,16.70
2019-02-17T10:09:59.317Z,16.05
2019-02-17T10:12:27.818Z,15.20
2019-02-17T10:14:56.301Z,15.35
2019-02-17T10:17:24.882Z,15.20
2019-02-17T10:19:53.437Z,16.43
2019-02-17T10:22:22.286Z,15.03
2019-02-17T10:24:50.843Z,15.53
2019-02-17T10:27:19.409Z,14.87
2019-02-17T10:29:47.955Z,14.37
2019-02-17T10:32:16.533Z,14.40
2019-02-17T10:34:45.087Z,12.57
2019-02-17T10:37:13.652Z,13.93
2019-02-17T10:39:42.130Z,13.38
2019-02-17T10:42:10.638Z,12.47
2019-02-17T10:44:39.201Z,13.50
2019-02-17T10:47:07.777Z,12.90
2019-02-17T10:49:36.353Z,13.47
2019-02-17T10:52:04.857Z,14.03
2019-02-17T10:54:33.693Z,13.40
2019-02-17T10:57:02.279Z,13.50
2019-02-17T10:59:30.749Z,14.00
2019-02-17T11:01:59.284Z,13.03
2019-02-17T11:04:28.231Z,12.80
2019-02-17T11:06:56.840Z,13.60
2019-02-17T11:09:25.373Z,14.07
2019-02-17T11:11:53.954Z,13.08
2019-02-17T11:14:22.510Z,13.35
2019-02-17T11:16:51.129Z,12.10
2019-02-17T11:19:19.709Z,12.30
2019-02-17T11:21:48.317Z,12.18
2019-02-17T11:24:16.885Z,12.40
2019-02-17T11:26:45.382Z,11.63
2019-02-17T11:29:13.950Z,11.40
2019-02-17T11:31:42.416Z,11.80
2019-02-17T11:34:10.999Z,11.40
2019-02-17T11:36:39.541Z,13.20
2019-02-17T11:39:10.222Z,12.28
2019-02-17T11:41:38.782Z,12.00
2019-02-17T11:44:07.353Z,12.78
2019-02-17T11:46:35.899Z,11.50
2019-02-17T11:49:04.396Z,10.65
2019-02-17T11:51:32.879Z,12.10
2019-02-17T11:54:01.445Z,10.60
2019-02-17T11:56:29.921Z,10.95
2019-02-17T11:58:58.490Z,11.30
2019-02-17T12:01:27.365Z,10.10
2019-02-17T12:03:55.953Z,10.30
2019-02-17T12:06:24.509Z,10.10
2019-02-17T12:08:53.002Z,9.98
2019-02-17T12:11:23.531Z,8.90
2019-02-17T12:13:52.113Z,9.65
2019-02-17T12:16:20.650Z,8.40
2019-02-17T12:18:49.157Z,8.50
2019-02-17T12:21:31.515Z,8.40
2019-02-17T12:24:13.659Z,8.80
2019-02-17T12:26:50.090Z,6.97
2019-02-17T12:29:35.112Z,7.22
2019-02-17T12:32:03.673Z,6.20
2019-02-17T12:34:32.241Z,6.45
2019-02-17T12:37:00.781Z,5.78
2019-02-17T12:39:29.349Z,8.15
2019-02-17T12:41:58.252Z,7.97
2019-02-17T12:44:26.751Z,8.00
2019-02-17T12:46:55.302Z,7.10
2019-02-17T12:49:23.861Z,6.60
2019-02-17T12:51:52.417Z,7.12
2019-02-17T12:54:28.902Z,8.13
2019-02-17T12:56:51.092Z,7.60
2019-02-17T12:59:19.601Z,7.30
2019-02-17T13:01:48.138Z,8.13
2019-02-17T13:04:16.642Z,9.13
2019-02-17T13:06:45.192Z,9.05
2019-02-17T13:09:13.839Z,9.05
2019-02-17T13:11:42.379Z,9.40
2019-02-17T13:14:10.942Z,8.90
2019-02-17T13:16:39.577Z,8.30
2019-02-17T13:19:08.077Z,7.22
2019-02-17T13:21:36.544Z,7.20
2019-02-17T13:24:05.034Z,6.40
2019-02-17T13:26:33.579Z,6.53
2019-02-17T13:29:02.153Z,6.20
2019-02-17T13:31:30.697Z,7.70
2019-02-17T13:33:59.193Z,7.75
2019-02-17T13:36:27.757Z,5.62
2019-02-17T13:38:56.321Z,4.90
2019-02-17T13:41:24.865Z,6.00
2019-02-17T13:43:53.438Z,8.40
2019-02-17T13:46:21.986Z,7.60
2019-02-17T13:48:50.535Z,7.80
2019-02-17T13:51:19.104Z,8.40
2019-02-17T13:53:47.573Z,8.23
2019-02-17T13:56:16.847Z,7.90
2019-02-17T13:58:45.410Z,8.30
2019-02-17T14:01:13.974Z,8.30
2019-02-17T14:03:48.776Z,8.03
2019-02-17T14:06:12.729Z,7.67
2019-02-17T14:08:41.198Z,7.90
2019-02-17T14:11:11.217Z,7.30
2019-02-17T14:13:39.761Z,7.27
2019-02-17T14:16:08.259Z,7.05
2019-02-17T14:18:36.793Z,6.90
2019-02-17T14:21:05.285Z,7.20
2019-02-17T14:23:33.748Z,7.00
2019-02-17T14:26:02.243Z,6.60
2019-02-17T14:28:30.796Z,6.80
2019-02-17T14:30:59.626Z,6.80
2019-02-17T14:33:28.084Z,7.80
2019-02-17T14:35:56.594Z,7.90
2019-02-17T14:38:25.146Z,8.07
2019-02-17T14:40:53.713Z,7.30
2019-02-17T14:43:22.265Z,7.30
2019-02-17T14:45:50.830Z,7.33
2019-02-17T14:48:19.378Z,7.43
2019-02-17T14:50:48.029Z,7.70
2019-02-17T14:53:16.522Z,7.65
2019-02-17T14:55:45.086Z,7.70
2019-02-17T14:58:13.647Z,8.30
2019-02-17T15:00:42.223Z,7.67
2019-02-17T15:03:10.801Z,7.50
2019-02-17T15:05:39.368Z,7.30
2019-02-17T15:08:07.905Z,7.12
2019-02-17T15:10:36.516Z,6.78
2019-02-17T15:13:05.137Z,8.27
2019-02-17T15:15:34.026Z,7.28
2019-02-17T15:18:02.562Z,7.30
2019-02-17T15:20:31.130Z,7.30
2019-02-17T15:22:59.676Z,7.03
2019-02-17T15:25:28.238Z,7.37
2019-02-17T15:27:56.793Z,7.25
2019-02-17T15:30:25.371Z,6.70
2019-02-17T15:33:03.254Z,6.50
2019-02-17T15:35:24.138Z,6.80
2019-02-17T15:37:52.694Z,6.30
2019-02-17T15:40:23.374Z,6.15
2019-02-17T15:42:51.446Z,5.87
2019-02-17T15:45:20.019Z,5.85
2019-02-17T15:47:48.566Z,5.80
2019-02-17T15:50:17.057Z,5.80
2019-02-17T15:52:45.527Z,6.50
2019-02-17T15:55:14.926Z,6.55
2019-02-17T15:57:43.482Z,7.10
2019-02-17T16:00:16.932Z,7.30
2019-02-17T16:02:45.480Z,7.60
2019-02-17T16:05:14.109Z,7.60
2019-02-17T16:07:42.583Z,7.53
2019-02-17T16:10:12.594Z,7.20
2019-02-17T16:12:41.140Z,6.85
2019-02-17T16:15:12.710Z,7.30
2019-02-17T16:17:41.526Z,6.90
2019-02-17T16:20:12.429Z,7.20
2019-02-17T16:22:40.910Z,7.70
2019-02-17T16:25:10.547Z,6.70
2019-02-17T16:27:39.152Z,7.50
2019-02-17T16:30:10.797Z,7.28
2019-02-17T16:32:39.364Z,7.25
2019-02-17T16:35:07.894Z,7.80
2019-02-17T16:37:36.387Z,7.80
2019-02-17T16:40:07.779Z,7.90
2019-02-17T16:42:36.349Z,7.30
2019-02-17T16:45:07.341Z,7.63
2019-02-17T16:47:35.902Z,7.70
2019-02-17T16:50:09.762Z,7.70
2019-02-17T16:52:38.252Z,7.60
2019-02-17T16:55:09.155Z,7.37
2019-02-17T16:57:37.722Z,7.00
2019-02-17T17:00:09.379Z,7.60
2019-02-17T17:02:37.954Z,7.90
2019-02-17T17:05:09.512Z,8.00
2019-02-17T17:07:38.018Z,7.93
2019-02-17T17:10:06.797Z,7.23
2019-02-17T17:12:35.298Z,8.60
2019-02-17T17:15:05.074Z,8.20
2019-02-17T17:17:33.646Z,7.90
2019-02-17T17:20:02.450Z,8.50
2019-02-17T17:22:31.029Z,9.40
2019-02-17T17:24:59.581Z,10.23
2019-02-17T17:27:28.147Z,8.30
2019-02-17T17:29:56.685Z,7.90
2019-02-17T17:32:25.175Z,8.40
2019-02-17T17:34:58.971Z,9.57
2019-02-17T17:37:23.934Z,12.45
2019-02-17T17:39:52.657Z,15.00
2019-02-17T17:42:21.224Z,13.60
2019-02-17T17:44:49.706Z,11.53
2019-02-17T17:47:18.278Z,12.53
2019-02-17T17:49:46.861Z,13.03
2019-02-17T17:52:15.354Z,11.03
2019-02-17T17:54:43.909Z,12.70
2019-02-17T17:57:12.474Z,8.57
2019-02-17T17:59:41.293Z,9.80
2019-02-17T18:02:09.862Z,10.83
2019-02-17T18:04:38.418Z,11.50
2019-02-17T18:07:06.914Z,9.57
2019-02-17T18:09:35.735Z,10.20
2019-02-17T18:12:04.455Z,10.60
2019-02-17T18:14:33.001Z,13.13
2019-02-17T18:17:01.571Z,12.30
2019-02-17T18:19:30.117Z,12.73
2019-02-17T18:21:58.666Z,12.23
2019-02-17T18:24:27.370Z,13.20
2019-02-17T18:26:55.922Z,13.72
2019-02-17T18:29:24.498Z,12.90
2019-02-17T18:31:52.983Z,12.85
2019-02-17T18:34:21.553Z,47.70
2019-02-17T18:36:50.159Z,32.75
2019-02-17T18:39:18.720Z,19.20
2019-02-17T18:41:47.209Z,15.50
2019-02-17T18:44:15.820Z,17.50
2019-02-17T18:46:44.369Z,18.40
2019-02-17T18:49:12.869Z,15.60
2019-02-17T18:51:41.881Z,57.27
2019-02-17T18:54:10.505Z,18.90
2019-02-17T18:56:38.993Z,44.25
2019-02-17T18:59:07.586Z,20.90
2019-02-17T19:01:36.139Z,25.00
2019-02-17T19:04:04.717Z,17.27
2019-02-17T19:06:33.293Z,17.00
2019-02-17T19:09:01.873Z,16.37
2019-02-17T19:11:30.421Z,16.30
2019-02-17T19:13:59.002Z,17.82
2019-02-17T19:16:27.806Z,16.10
2019-02-17T19:18:56.316Z,22.22
2019-02-17T19:21:24.794Z,30.40
2019-02-17T19:23:53.572Z,17.83
2019-02-17T19:26:22.080Z,16.25
2019-02-17T19:28:50.599Z,24.43
2019-02-17T19:31:19.156Z,21.30
2019-02-17T19:33:47.709Z,23.40
2019-02-17T19:36:16.266Z,33.88
2019-02-17T19:38:45.093Z,26.70
2019-02-17T19:41:13.662Z,22.83
2019-02-17T19:43:42.238Z,17.42
2019-02-17T19:46:10.790Z,21.50
2019-02-17T19:48:39.360Z,17.63
2019-02-17T19:51:08.190Z,15.75
2019-02-17T19:53:36.787Z,13.28
2019-02-17T19:56:07.393Z,13.30
2019-02-17T19:58:35.551Z,13.20
2019-02-17T20:01:04.177Z,12.18
2019-02-17T20:03:40.189Z,11.53
2019-02-17T20:06:09.737Z,12.90
2019-02-17T20:08:39.237Z,12.60
2019-02-17T20:11:07.782Z,12.50
2019-02-17T20:13:36.285Z,13.08
2019-02-17T20:16:04.765Z,11.00
2019-02-17T20:18:33.340Z,12.10
2019-02-17T20:21:01.882Z,11.80
2019-02-17T20:23:30.573Z,10.10
2019-02-17T20:25:59.094Z,12.05
2019-02-17T20:28:40.756Z,10.77
2019-02-17T20:30:57.786Z,9.80
2019-02-17T20:33:26.353Z,9.70
2019-02-17T20:36:02.381Z,9.47
2019-02-17T20:38:25.228Z,9.18
2019-02-17T20:40:53.700Z,9.80
2019-02-17T20:43:22.574Z,9.07
2019-02-17T20:45:51.256Z,8.70
2019-02-17T20:48:19.801Z,10.53
2019-02-17T20:50:48.306Z,10.88
2019-02-17T20:53:16.790Z,13.60
2019-02-17T20:55:45.354Z,14.20
2019-02-17T20:58:13.905Z,11.97
2019-02-17T21:00:42.675Z,12.17
2019-02-17T21:03:11.499Z,10.20
2019-02-17T21:05:40.069Z,9.00
2019-02-17T21:08:08.546Z,9.30
2019-02-17T21:10:37.033Z,9.18
2019-02-17T21:13:05.585Z,9.05
2019-02-17T21:15:34.199Z,8.50
2019-02-17T21:18:02.757Z,10.13
2019-02-17T21:20:31.504Z,8.40
2019-02-17T21:23:00.049Z,8.33
2019-02-17T21:25:28.620Z,8.33
2019-02-17T21:27:57.162Z,9.40
2019-02-17T21:30:25.729Z,8.43
2019-02-17T21:32:55.120Z,8.20
2019-02-17T21:35:23.696Z,8.27
2019-02-17T21:37:52.233Z,8.10
2019-02-17T21:40:20.793Z,8.30
2019-02-17T21:42:49.256Z,7.85
2019-02-17T21:45:17.881Z,7.90
2019-02-17T21:47:46.431Z,7.40
2019-02-17T21:50:15.754Z,7.70
2019-02-17T21:52:44.312Z,11.63
2019-02-17T21:55:14.520Z,7.50
2019-02-17T21:57:43.128Z,9.23
2019-02-17T22:00:16.127Z,8.50
2019-02-17T22:02:44.751Z,9.00
2019-02-17T22:05:13.384Z,9.08
2019-02-17T22:07:42.002Z,9.10
2019-02-17T22:10:15.961Z,9.30
2019-02-17T22:12:44.508Z,9.50
2019-02-17T22:15:21.823Z,9.88
2019-02-17T22:17:50.432Z,9.35
2019-02-17T22:20:18.992Z,8.90
2019-02-17T22:22:47.465Z,9.83
2019-02-17T22:25:16.108Z,9.33
2019-02-17T22:27:44.666Z,9.30
2019-02-17T22:30:16.090Z,10.40
2019-02-17T22:32:45.514Z,10.08
2019-02-17T22:35:14.137Z,14.47
2019-02-17T22:37:42.962Z,9.67
2019-02-17T22:40:13.717Z,11.13
2019-02-17T22:42:42.353Z,9.63
2019-02-17T22:45:12.067Z,8.50
2019-02-17T22:47:40.801Z,8.47
2019-02-17T22:50:10.804Z,8.20
2019-02-17T22:52:39.369Z,8.63
2019-02-17T22:55:10.059Z,8.50
2019-02-17T22:57:38.695Z,8.13
2019-02-17T23:00:10.586Z,8.55
2019-02-17T23:02:39.136Z,8.28
2019-02-17T23:05:08.217Z,9.07
2019-02-17T23:07:36.789Z,9.60
2019-02-17T23:10:08.460Z,10.27
2019-02-17T23:12:37.013Z,8.98
2019-02-17T23:15:07.325Z,9.03
2019-02-17T23:17:35.901Z,36.55
2019-02-17T23:20:05.981Z,22.43
2019-02-17T23:22:34.481Z,15.17
2019-02-17T23:25:04.488Z,8.50
2019-02-17T23:27:32.992Z,10.78
2019-02-17T23:30:01.546Z,10.63
2019-02-17T23:32:30.099Z,8.13
2019-02-17T23:34:58.561Z,8.40
2019-02-17T23:37:27.051Z,8.40
2019-02-17T23:39:55.581Z,8.10
2019-02-17T23:42:24.064Z,8.50
2019-02-17T23:44:52.534Z,8.50
2019-02-17T23:47:21.096Z,7.87
2019-02-17T23:49:49.569Z,8.50
2019-02-17T23:52:18.201Z,8.33
2019-02-17T23:54:47.042Z,9.18
2019-02-17T23:57:15.660Z,8.77
2019-02-17T23:59:44.176Z,8.20
